• Join FlightAware (Why Join?)
  • Login
  • US Flag 
06:10AM EDT


 

Airport Tracker/Info


-or-


 

Live Flight TrackerFlight Track Log ✈ QFA982 ✈ 08-Sep-2013 ✈ YBAS / ASP - YBBN / BNE

Flight Track Log - Related Links

Times and Time Zones

All times are in EDT time to prevent confusion due to time zone crossing. See the QFA982 flight status page for this flight to view local times or setup timezone preferences in your user account.

Time Position Orientation Groundspeed Altitude Reporting Facility
EDT Latitude Longitude Course Direction KTS MPH feet Rate Location/Type
11:11PM -23.8100 133.9110 180° South 72 83  Level FlightAware
11:11PM -23.8050 133.9000 296° West 150 173 3,420 Level FlightAware
11:11PM -23.8000 133.8910 301° West 166 191 1,900 4,800 Climbing FlightAware
11:11PM -23.8292 133.9899 290° West 37,000 2,400 Climbing Aus ATC (Calculated)
11:12PM -23.7900 133.8740 301° West 171 197 2,800 -59,340 Descending FlightAware
11:12PM -23.7830 133.8620 303° West 183 211 3,400 1,920 Climbing FlightAware
11:12PM -23.7780 133.8570 318° Northwest 195 224 3,600 2,100 Climbing FlightAware
11:12PM -23.7690 133.8490 321° Northwest 202 232 4,100 2,340 Climbing FlightAware
11:12PM -23.8495 134.0761 294° West 37,000 2,220 Climbing Aus ATC (Calculated)
11:13PM -23.7550 133.8430 339° North 215 247 4,700 -82,980 Descending FlightAware
11:13PM -23.7430 133.8410 351° North 224 258 5,200 1,920 Climbing FlightAware
11:13PM -23.7130 133.8490 14° North 265 305 6,000 2,040 Climbing FlightAware
11:13PM -23.6960 133.8600 14° North 274 315 6,700 1,320 Climbing FlightAware
11:14PM -23.6770 133.8820 47° Northeast 276 318 6,800 180 Climbing FlightAware
11:14PM -23.6700 133.8960 61° Northeast 274 315 6,800 300 Level FlightAware
11:14PM -23.6660 133.9070 68° East 273 314 6,900  Climbing FlightAware
11:14PM -23.6650 133.9170 84° East 273 314 6,800 -240 Descending FlightAware
11:15PM -23.6710 133.9430 104° East 276 318 6,800  Level FlightAware
11:15PM -23.6800 133.9540 132° Southeast 281 323 6,800  Level FlightAware
11:15PM -23.9277 134.4105 300° West 37,000  Climbing Aus ATC (Calculated)
11:15PM -23.6970 133.9680 132° Southeast 281 323 6,800 -56,640 Descending FlightAware
11:15PM -23.9447 134.4837 296° West 37,000  Climbing Aus ATC (Calculated)
11:15PM -23.7190 133.9840 146° Southeast 287 330 6,800 -106,620 Descending FlightAware
11:16PM -23.7360 133.9970 146° Southeast 286 329 6,800  Level FlightAware
11:16PM -23.7540 134.0090 149° Southeast 283 326 6,800  Level FlightAware
11:16PM -23.7750 134.0240 147° Southeast 282 325 6,800 120 Level FlightAware
11:17PM -23.7940 134.0370 148° Southeast 299 344 6,900  Climbing FlightAware
11:17PM -23.8160 134.0530 146° Southeast 300 345 6,800 -180 Descending FlightAware
11:17PM -23.8380 134.0720 142° Southeast 292 336 6,800 240 Level FlightAware
11:17PM -23.8430 134.0800 124° Southeast 291 335 6,900 300 Climbing FlightAware
11:17PM -23.8470 134.0940 107° East 288 331 6,900 1,140 Level FlightAware
11:18PM -23.8540 134.1230 105° East 295 339 7,500 2,580 Climbing FlightAware
11:18PM -23.8590 134.1400 108° East 293 337 8,300 3,780 Climbing FlightAware
11:18PM -24.0384 134.8898 285° West 37,000 3,660 Climbing Aus ATC (Calculated)
11:18PM -23.8650 134.1670 104° East 297 342 9,400 -36,600 Descending FlightAware
11:19PM -23.8790 134.2210 104° East 306 352 11,400 2,460 Climbing FlightAware
11:19PM -23.8930 134.2790 105° East 347 399 12,500 2,040 Climbing FlightAware
11:20PM -24.0784 135.0648 284° West 37,000 2,280 Climbing Aus ATC (Calculated)
11:20PM -23.9090 134.3400 105° East 367 422 13,900 -22,260 Descending FlightAware
11:21PM -24.1249 135.2698 284° West 37,000 3,000 Climbing Aus ATC (Calculated)
11:21PM -23.9230 134.4010 105° East 376 433 15,500 -32,460 Descending FlightAware
11:21PM -23.9380 134.4640 105° East 386 444 17,000 2,400 Climbing FlightAware
11:21PM -24.1459 135.3629 284° West 37,000 2,220 Climbing Aus ATC (Calculated)
11:22PM -23.9590 134.5530 105° East 404 465 18,700 -17,700 Descending FlightAware
11:22PM -24.1656 135.4501 284° West 37,000 2,400 Climbing Aus ATC (Calculated)
11:22PM -23.9720 134.6120 105° East 410 472 19,900 -13,920 Descending FlightAware
11:23PM -24.1840 135.5320 284° West 37,000 2,400 Climbing Aus ATC (Calculated)
11:23PM -23.9920 134.6950 105° East 416 479 21,500 -12,900 Descending FlightAware
11:24PM -24.2012 135.6087 284° West 37,000 1,860 Climbing Aus ATC (Calculated)
11:24PM -24.0070 134.7620 105° East 428 493 22,600 -20,280 Descending FlightAware
11:24PM -24.0250 134.8380 105° East 443 510 23,500 1,620 Climbing FlightAware
11:25PM -24.0410 134.9070 104° East 453 521 24,400 1,680 Climbing FlightAware
11:25PM -24.2323 135.7481 284° West 37,000 1,680 Climbing Aus ATC (Calculated)
11:25PM -24.0590 134.9890 104° East 464 534 25,400 -9,360 Descending FlightAware
11:26PM -24.0800 135.0810 104° East 479 551 26,300 1,380 Climbing FlightAware
11:27PM -24.0960 135.1500 104° East 487 560 27,100 1,680 Climbing FlightAware
11:27PM -24.2745 135.9380 284° West 37,000 1,740 Climbing Aus ATC (Calculated)
11:27PM -24.1170 135.2420 104° East 492 566 28,200 -5,820 Descending FlightAware
11:27PM -24.2972 136.0409 284° West 37,000 660 Climbing Aus ATC (Calculated)
11:28PM -24.1430 135.3630 104° East 496 571 28,800 -5,220 Descending FlightAware
11:28PM -24.3171 136.1310 284° West 37,000 2,100 Climbing Aus ATC (Calculated)
11:29PM -24.1690 135.4720 104° East 510 587 30,200 -7,800 Descending FlightAware
11:29PM -24.1870 135.5520 104° East 516 594 30,900 1,560 Climbing FlightAware
11:30PM -24.2060 135.6360 104° East 513 590 31,900 1,380 Climbing FlightAware
11:30PM -24.3689 136.3675 284° West 37,000 1,020 Climbing Aus ATC (Calculated)
11:30PM -24.2280 135.7350 104° East 518 596 32,600 -4,200 Descending FlightAware
11:31PM -24.2480 135.8250 104° East 527 606 33,200 660 Climbing FlightAware
11:32PM -24.2690 135.9230 103° East 528 608 33,500 1,260 Climbing FlightAware
11:32PM -24.2890 136.0070 105° East 527 606 34,700 1,860 Climbing FlightAware
11:33PM -24.3110 136.1080 103° East 524 603 35,600 1,080 Climbing FlightAware
11:33PM -24.4545 136.7622 283° West 37,000 780 Climbing Aus ATC (Calculated)
11:34PM -24.3360 136.2190 103° East 528 608 36,200 -240 Descending FlightAware
11:34PM -24.3570 136.3150 104° East 531 611 36,800 600 Climbing FlightAware
11:35PM -24.3780 136.4130 103° East 536 617 37,000 120 Climbing FlightAware
11:35PM -24.3970 136.4970 104° East 535 616 37,000  Level FlightAware
11:36PM -24.4180 136.5930 104° East 535 616 37,000  Level FlightAware
11:37PM -24.4390 136.6880 104° East 534 615 37,000  Level FlightAware
11:37PM -24.5651 137.2736 283° West 37,000  Level Aus ATC (Calculated)
11:37PM -24.4560 136.7710 104° East 534 615 37,000  Level FlightAware
11:38PM -24.4810 136.8830 104° East 530 610 37,000  Level FlightAware
11:38PM -24.4990 136.9650 104° East 529 609 37,000  Level FlightAware
11:39PM -24.5250 137.0850 103° East 526 605 37,000  Level FlightAware
11:40PM -24.6613 137.7260 283° West 37,000  Level Aus ATC (Calculated)
11:40PM -24.5490 137.2010 103° East 525 604 37,000  Level FlightAware
11:40PM -24.5690 137.2910 103° East 524 603 37,000  Level FlightAware
11:41PM -24.5870 137.3760 103° East 523 602 37,000  Level FlightAware
11:42PM -24.6030 137.4550 103° East 523 602 37,000  Level FlightAware
11:42PM -24.6200 137.5350 103° East 523 602 37,000  Level FlightAware
11:43PM -24.7519 138.1584 283° West 37,000  Level Aus ATC (Calculated)
11:43PM -24.6370 137.6140 103° East 523 602 37,000  Level FlightAware
11:43PM -24.7631 138.2125 283° West 37,000  Level Aus ATC (Calculated)
11:43PM -24.6530 137.6930 103° East 523 602 37,000  Level FlightAware
11:44PM -24.6700 137.7730 103° East 523 602 37,000  Level FlightAware
11:45PM -24.6870 137.8520 103° East 523 602 37,000  Level FlightAware
11:45PM -24.7030 137.9320 102° East 523 602 37,000  Level FlightAware
11:46PM -24.7200 138.0110 103° East 523 602 37,000  Level FlightAware
11:46PM -24.7370 138.0930 103° East 523 602 37,000  Level FlightAware
11:47PM -24.7540 138.1740 103° East 523 602 37,000  Level FlightAware
11:48PM -24.7710 138.2540 103° East 523 602 37,000  Level FlightAware
11:48PM -24.9183 138.9710 283° West 37,000  Level Aus ATC (Calculated)
11:48PM -24.7870 138.3330 103° East 523 602 37,000  Level FlightAware
11:49PM -24.8040 138.4130 103° East 523 602 37,000  Level FlightAware
11:49PM -24.8210 138.4920 103° East 523 602 37,000  Level FlightAware
11:50PM -24.8370 138.5720 102° East 523 602 37,000  Level FlightAware
11:51PM -24.8540 138.6510 103° East 523 602 37,000  Level FlightAware
11:51PM -25.0268 139.5138 282° West 37,000  Level Aus ATC (Calculated)
11:51PM -24.8710 138.7310 103° East 523 602 37,000  Level FlightAware
11:52PM -24.8870 138.8100 103° East 523 602 37,000  Level FlightAware
11:52PM -24.9040 138.8900 103° East 523 602 37,000  Level FlightAware
11:53PM -25.0803 139.7856 282° West 37,000  Level Aus ATC (Calculated)
11:53PM -24.9210 138.9690 103° East 523 602 37,000  Level FlightAware
11:54PM -24.9370 139.0490 102° East 523 602 37,000  Level FlightAware
11:54PM -24.9540 139.1280 103° East 523 602 37,000  Level FlightAware
11:55PM -24.9710 139.2080 103° East 523 602 37,000  Level FlightAware
11:55PM -24.9870 139.2880 102° East 523 602 37,000  Level FlightAware
11:58PM -25.0429 139.5738 102° East  Level FlightAware Approximate
11:58PM -25.2378 140.6024 102° East 37,000  Level Aus ATC (Calculated)
12:00AM -25.2826 140.8393 102° East  Level FlightAware Approximate
12:00AM -25.2996 140.9297 102° East 37,000  Level Aus ATC (Calculated)
12:01AM -25.3116 140.9939 102° East  Level FlightAware Approximate
12:02AM -25.3357 141.1230 102° East  Level FlightAware Approximate
12:03AM -25.3643 141.2777 102° East  Level FlightAware Approximate
12:03AM -25.3819 141.3730 282° West 39,000  Level Aus ATC (Calculated)
12:05AM -25.3328 141.1073 282° West  Level FlightAware Approximate
12:05AM -25.4437 141.7106 281° West 39,000  Level Aus ATC (Calculated)
12:05AM -25.4539 141.7669 281° West 39,000 -2,280 Level Aus ATC (Calculated)
12:06AM -25.3670 141.2930 282° West 530 610 37,000 -1,740 Descending FlightAware
12:06AM -25.3800 141.3650 282° West 530 610 37,000  Level FlightAware
12:07AM -25.3940 141.4470 101° East 530 610 37,000  Level FlightAware
12:08AM -25.4220 141.5950 102° East 529 609 37,000  Level FlightAware
12:09AM -25.4440 141.7170 101° East 530 610 37,000  Level FlightAware
12:09AM -25.4690 141.8500 102° East 530 610 37,000  Level FlightAware
12:10AM -25.5847 142.4997 281° West 39,000  Climbing Aus ATC (Calculated)
12:10AM -25.4870 141.9510 102° East 529 609 37,000 -3,660 Descending FlightAware
12:11AM -25.5000 142.0220 101° East 529 609 37,000  Level FlightAware
12:12AM -25.5290 142.1830 101° East 527 606 37,000  Level FlightAware
12:12AM -25.5430 142.2650 101° East 527 606 37,000  Level FlightAware
12:13AM -25.5620 142.3740 101° East 526 605 37,000  Level FlightAware
12:13AM -25.5790 142.4640 102° East 526 605 37,000  Level FlightAware
12:14AM -25.5950 142.5600 100° East 526 605 37,000  Level FlightAware
12:14AM -25.6100 142.6450 101° East 525 604 37,000  Level FlightAware
12:15AM -25.7119 143.2341 281° West 39,000  Climbing Aus ATC (Calculated)
12:15AM -25.6270 142.7430 101° East 525 604 37,000 -2,880 Descending FlightAware
12:16AM -25.6440 142.8400 101° East 525 604 37,000  Level FlightAware
12:16AM -25.6590 142.9250 101° East 526 605 37,000  Level FlightAware
12:17AM -25.6750 143.0170 101° East 525 604 37,000  Level FlightAware
12:17AM -25.6910 143.1120 101° East 525 604 37,000  Level FlightAware
12:18AM -25.7070 143.2070 101° East 525 604 37,000  Level FlightAware
12:18AM -25.7220 143.2910 101° East 524 603 37,000  Level FlightAware
12:19AM -25.7390 143.3920 101° East 523 602 37,000  Level FlightAware
12:20AM -25.8354 143.9700 280° West 39,000  Climbing Aus ATC (Calculated)
12:20AM -25.7540 143.4840 101° East 523 602 37,000 -3,180 Descending FlightAware
12:20AM -25.8447 144.0266 280° West 39,000  Climbing Aus ATC (Calculated)
12:20AM -25.7690 143.5710 101° East 522 601 37,000 -2,220 Descending FlightAware
12:21AM -25.7850 143.6640 101° East 522 601 37,000  Level FlightAware
12:21AM -25.8000 143.7580 100° East 521 600 37,000  Level FlightAware
12:22AM -25.8160 143.8540 101° East 519 597 37,000  Level FlightAware
12:23AM -25.8320 143.9480 101° East 518 596 37,000  Level FlightAware
12:23AM -25.8450 144.0270 100° East 517 595 37,000  Level FlightAware
12:24AM -25.8610 144.1240 100° East 516 594 37,000  Level FlightAware
12:24AM -25.8760 144.2180 100° East 515 593 37,000  Level FlightAware
12:25AM -25.9741 144.8266 280° West 39,000  Climbing Aus ATC (Calculated)
12:25AM -25.8910 144.3110 100° East 514 592 37,000 -3,360 Descending FlightAware
12:26AM -25.9050 144.3950 100° East 513 590 37,000  Level FlightAware
12:26AM -25.9200 144.4890 100° East 513 590 37,000  Level FlightAware
12:27AM -25.9330 144.5700 100° East 514 592 37,000  Level FlightAware
12:27AM -25.9490 144.6650 101° East 515 593 37,000  Level FlightAware
12:28AM -25.9630 144.7560 100° East 515 593 37,000  Level FlightAware
12:28AM -26.0523 145.3267 280° West 39,000  Climbing Aus ATC (Calculated)
12:28AM -25.9780 144.8530 100° East 516 594 37,000 -1,800 Descending FlightAware
12:29AM -25.9930 144.9440 100° East 516 594 37,000  Level FlightAware
12:30AM -26.0060 145.0310 99° East 516 594 37,000  Level FlightAware
12:30AM -26.0210 145.1220 100° East 516 594 37,000  Level FlightAware
12:31AM -26.0360 145.2180 100° East 515 593 37,000  Level FlightAware
12:31AM -26.0500 145.3110 100° East 515 593 37,000  Level FlightAware
12:32AM -26.0630 145.3940 100° East 514 592 37,000  Level FlightAware
12:33AM -26.0770 145.4870 100° East 513 590 37,000  Level FlightAware
12:33AM -26.1664 146.0780 279° West 39,000  Climbing Aus ATC (Calculated)
12:33AM -26.0910 145.5790 100° East 511 588 37,000 -2,280 Descending FlightAware
12:34AM -26.1944 146.2661 279° West 39,000  Climbing Aus ATC (Calculated)
12:34AM -26.1050 145.6730 99° East 509 586 37,000 -3,540 Descending FlightAware
12:34AM -26.1180 145.7540 100° East 508 585 37,000  Level FlightAware
12:35AM -26.1320 145.8500 100° East 505 581 37,000  Level FlightAware
12:35AM -26.1460 145.9390 100° East 504 580 37,000  Level FlightAware
12:36AM -26.1580 146.0230 99° East 503 579 37,000  Level FlightAware
12:37AM -26.1710 146.1110 99° East 506 582 37,000  Level FlightAware
12:37AM -26.1860 146.2090 100° East 506 582 37,000  Level FlightAware
12:38AM -26.2000 146.2990 100° East 506 582 37,000  Level FlightAware
12:38AM -26.2857 146.8935 279° West 39,000  Climbing Aus ATC (Calculated)
12:38AM -26.2120 146.3830 100° East 507 583 37,000 -1,860 Descending FlightAware
12:39AM -26.2250 146.4740 99° East 508 585 37,000  Level FlightAware
12:40AM -26.2380 146.5660 99° East 508 585 37,000  Level FlightAware
12:40AM -26.2510 146.6530 99° East 508 585 37,000  Level FlightAware
12:41AM -26.2630 146.7410 99° East 508 585 37,000  Level FlightAware
12:41AM -26.3567 147.3962 279° West 39,000  Climbing Aus ATC (Calculated)
12:41AM -26.3567 147.3962 279° West 39,000 -3,900 Level Aus ATC (Calculated)
12:41AM -26.2750 146.8210 99° East 508 585 37,000 -2,100 Descending FlightAware
12:42AM -26.2860 146.9000 99° East 508 585 37,000  Level FlightAware
12:43AM -26.2970 146.9790 99° East 508 585 37,000  Level FlightAware
12:43AM -26.3916 147.6478 279° West 39,000  Climbing Aus ATC (Calculated)
12:43AM -26.3080 147.0560 99° East 508 585 37,000 -1,800 Descending FlightAware
12:44AM -26.3190 147.1350 99° East 508 585 37,000  Level FlightAware
12:44AM -26.3310 147.2150 100° East 508 585 37,000  Level FlightAware
12:45AM -26.3420 147.2940 100° East 508 585 37,000 300 Level FlightAware
12:45AM -26.3568 147.4128 100° East 507 583 37,200  Climbing Aus ATC (RADAR)
12:46AM -26.3530 147.3730 99° East 508 585 37,000 -180 Descending FlightAware
12:46AM -26.3820 147.5820 99° East 512 589 37,000  Level FlightAware
12:47AM -26.3910 147.6480 99° East 513 590 37,000  Level FlightAware
12:47AM -26.4070 147.7580 99° East 511 588 37,000  Level FlightAware
12:48AM -26.4170 147.8410 98° East 511 588 37,000  Level FlightAware
12:49AM -26.4270 147.9210 98° East 511 588 37,000  Level FlightAware
12:49AM -26.4380 148.0050 98° East 511 588 37,000  Level FlightAware
12:50AM -26.4480 148.0850 98° East 511 588 37,000 180 Level FlightAware
12:50AM -26.4727 148.2471 98° East 508 585 37,200  Climbing Aus ATC (RADAR)
12:50AM -26.4580 148.1650 98° East 511 588 37,000 -300 Descending FlightAware
12:51AM -26.4680 148.2450 98° East 511 588 37,000  Level FlightAware
12:52AM -26.4780 148.3250 98° East 511 588 37,000  Level FlightAware
12:52AM -26.4880 148.4050 98° East 511 588 37,000 -1,980 Level FlightAware
12:52AM -26.5120 148.5446 98° East 498 573 35,800 -2,520 Descending Aus ATC (RADAR)
12:53AM -26.5232 148.6319 98° East 489 563 35,500 2,040 Descending Aus ATC (RADAR)
12:53AM -26.4980 148.4850 98° East 511 588 37,000 -600 Climbing FlightAware
12:53AM -26.5328 148.7072 98° East 487 560 35,200  Descending Aus ATC (RADAR)
12:53AM -26.5080 148.5650 98° East 511 588 37,000 2,520 Climbing FlightAware
12:54AM -26.5180 148.6450 98° East 511 588 37,000  Level FlightAware
12:55AM -26.5280 148.7250 98° East 511 588 37,000  Level FlightAware
12:55AM -26.5380 148.8080 98° East 511 588 37,000  Level FlightAware
12:56AM -26.5490 148.8900 99° East 511 588 37,000  Level FlightAware
12:56AM -26.5590 148.9700 98° East 511 588 37,000  Level FlightAware
12:57AM -26.5690 149.0500 98° East 511 588 37,000 -1,020 Level FlightAware
12:58AM -26.6763 149.4386 98° East 489 563 35,200 -1,140 Descending Aus ATC (RADAR)
12:59AM -26.6887 149.5012 102° East 492 566 35,200  Level Aus ATC (RADAR)
12:59AM -26.7071 149.5895 103° East 493 567 35,200  Level Aus ATC (RADAR)
01:01AM -26.7508 149.8120 102° East 455 524 35,200 -120 Level Aus ATC (RADAR)
01:01AM -26.7600 149.8590 102° East 452 520 35,000 -240 Descending FlightAware
01:02AM -26.7740 149.9280 103° East 452 520 35,000 120 Level FlightAware
01:02AM -26.7932 150.0266 103° East 446 513 35,200  Climbing Aus ATC (RADAR)
01:02AM -26.7950 150.0340 103° East 451 519 35,000 -300 Descending FlightAware
01:03AM -26.8080 150.1040 102° East 451 519 35,000  Level FlightAware
01:04AM -26.8260 150.1950 103° East 443 510 35,000  Level FlightAware
01:04AM -26.8390 150.2640 102° East 443 510 35,000  Level FlightAware
01:05AM -26.8570 150.3560 102° East 441 507 35,000  Level FlightAware
01:05AM -26.8720 150.4310 103° East 439 505 35,000  Level FlightAware
01:06AM -26.8860 150.5080 102° East 439 505 35,000  Level FlightAware
01:07AM -26.9020 150.5880 103° East 439 505 35,000  Level FlightAware
01:07AM -26.9170 150.6670 103° East 439 505 35,000 300 Level FlightAware
01:07AM -26.9183 150.6738 103° East 435 501 35,200  Climbing Aus ATC (RADAR)
01:08AM -26.9320 150.7450 102° East 439 505 35,000 -180 Descending FlightAware
01:08AM -26.9480 150.8290 102° East 439 505 35,000  Level FlightAware
01:09AM -26.9610 150.8920 103° East 439 505 35,000  Level FlightAware
01:09AM -26.9770 150.9780 102° East 438 504 35,000  Level FlightAware
01:10AM -26.9910 151.0570 101° East 438 504 35,000 -360 Level FlightAware
01:11AM -27.0071 151.1403 101° East 431 496 34,600 -180 Descending Aus ATC (RADAR)
01:11AM -27.0080 151.1530 101° East 437 503 34,900 -2,340 Climbing FlightAware
01:11AM -27.0220 151.2200 103° East 437 503 33,100 -2,160 Descending FlightAware
01:12AM -27.0390 151.3100 102° East 414 476 32,500 -840 Descending FlightAware
01:13AM -27.0530 151.3862 102° East 391 450 32,100 -900 Descending Aus ATC (RADAR)
01:13AM -27.0540 151.3920 102° East 392 451 31,900 -1,560 Descending FlightAware
01:13AM -27.0691 151.4540 102° East 383 441 31,200 -1,740 Descending Aus ATC (RADAR)
01:13AM -27.0730 151.4590 102° East 385 443 30,900 -1,560 Descending FlightAware
01:14AM -27.0997 151.5137 102° East 375 432 30,300 -1,500 Descending Aus ATC (RADAR)
01:14AM -27.1030 151.5190 102° East 379 436 30,000 -1,740 Descending FlightAware
01:14AM -27.1308 151.5727 102° East 370 426 29,300 -1,680 Descending Aus ATC (RADAR)
01:14AM -27.1340 151.5780 102° East 376 433 29,100 -1,920 Descending FlightAware
01:15AM -27.1650 151.6370 121° Southeast 374 430 28,100 -1,560 Descending FlightAware
01:16AM -27.1940 151.6940 120° Southeast 368 423 27,300 -1,320 Descending FlightAware
01:16AM -27.2240 151.7510 121° Southeast 358 412 26,600 -1,320 Descending FlightAware
01:17AM -27.2530 151.8050 121° Southeast 350 403 25,800 -1,200 Descending FlightAware
01:17AM -27.2800 151.8570 120° Southeast 338 389 25,200 -1,080 Descending FlightAware
01:18AM -27.3090 151.9140 120° Southeast 330 380 24,500 -1,200 Descending FlightAware
01:19AM -27.3360 151.9660 120° Southeast 324 373 23,700 -1,500 Descending FlightAware
01:19AM -27.3650 152.0220 120° Southeast 322 371 22,800 -1,380 Descending FlightAware
01:20AM -27.3890 152.0670 121° Southeast 317 365 22,100 -1,320 Descending FlightAware
01:20AM -27.4200 152.1280 120° Southeast 306 352 21,200 -1,320 Descending FlightAware
01:21AM -27.4510 152.1860 121° Southeast 302 348 20,300 -1,380 Descending FlightAware
01:22AM -27.4710 152.2260 119° Southeast 300 345 19,600 -1,260 Descending FlightAware
01:22AM -27.4955 152.2737 119° Southeast 292 336 19,000 -1,380 Descending Aus ATC (RADAR)
01:22AM -27.4970 152.2750 119° Southeast 301 346 18,800 -1,500 Descending FlightAware
01:23AM -27.5210 152.3220 119° Southeast 297 342 18,100 -960 Descending FlightAware
01:23AM -27.5230 152.3279 119° Southeast 292 336 18,200 -1,200 Climbing Aus ATC (RADAR)
01:23AM -27.5480 152.3750 120° Southeast 293 337 17,300 -1,500 Descending FlightAware
01:24AM -27.5690 152.4150 121° Southeast 291 335 16,600 -1,320 Descending FlightAware
01:24AM -27.5800 152.4430 114° Southeast 286 329 16,200 -1,380 Descending FlightAware
01:25AM -27.5750 152.4760 80° East 276 318 15,600 -1,380 Descending FlightAware
01:25AM -27.5660 152.4870 47° Northeast 272 313 15,400 -1,200 Descending FlightAware
01:25AM -27.5550 152.4950 33° Northeast 263 303 15,200 -1,200 Descending FlightAware
01:25AM -27.5440 152.4990 18° North 260 299 15,000 -1,380 Descending FlightAware
01:26AM -27.5140 152.4900 345° North 266 306 14,400 -1,380 Descending FlightAware
01:26AM -27.5010 152.4750 314° West 266 306 14,100 -1,320 Descending FlightAware
01:26AM -27.4810 152.4330 298° West 262 302 13,300 -1,380 Descending FlightAware
01:27AM -27.4790 152.4210 281° West 264 304 13,100 -1,200 Descending FlightAware
01:27AM -27.4910 152.3890 247° West 267 307 12,600 -1,380 Descending FlightAware
01:27AM -27.5010 152.3810 215° Southwest 256 295 12,300 -1,800 Descending FlightAware
01:27AM -27.5120 152.3770 198° South 268 308 12,000 -1,980 Descending FlightAware
01:28AM -27.5610 152.3902 198° South 285 328 10,700 -2,100 Descending Aus ATC (RADAR)
01:28AM -27.5640 152.3920 198° South 285 328 10,500 -2,040 Descending FlightAware
01:28AM -27.5930 152.4020 163° South 292 336 9,900 -1,500 Descending FlightAware
01:29AM -27.6210 152.4130 161° South 290 334 9,400 -1,200 Descending FlightAware
01:29AM -27.6400 152.4290 143° Southeast 274 315 9,100 -900 Descending FlightAware
01:29AM -27.6480 152.4430 123° Southeast 280 322 9,000 -300 Descending FlightAware
01:29AM -27.6510 152.4570 104° East 277 319 9,000 -420 Level FlightAware
01:30AM -27.6510 152.4650 90° East 279 321 8,900 -600 Descending FlightAware
01:30AM -27.6500 152.5010 88° East 281 323 8,700 -540 Descending FlightAware
01:30AM -27.6500 152.5290 90° East 283 326 8,500 -480 Descending FlightAware
01:31AM -27.6500 152.5580 90° East 280 322 8,400 -420 Descending FlightAware
01:31AM -27.6500 152.5950 90° East 279 321 8,200 -540 Descending FlightAware
01:31AM -27.6500 152.6240 90° East 280 322 8,000 -600 Descending FlightAware
01:32AM -27.6490 152.6530 88° East 280 322 7,800 -480 Descending FlightAware
01:32AM -27.6490 152.6820 90° East 281 323 7,700 -720 Descending FlightAware
01:32AM -27.6480 152.7190 88° East 280 322 7,300 -1,200 Descending FlightAware
01:33AM -27.6410 152.7540 77° East 275 316 6,700 -1,380 Descending FlightAware
01:33AM -27.6350 152.7810 76° East 266 306 6,300 -780 Descending FlightAware
01:34AM -27.6280 152.8070 73° East 250 288 6,200 -600 Descending FlightAware
01:34AM -27.6220 152.8310 74° East 245 282 5,900 -1,080 Descending FlightAware
01:34AM -27.6160 152.8550 74° East 243 280 5,500 -1,200 Descending FlightAware
01:35AM -27.6080 152.8870 74° East 238 274 5,000 -900 Descending FlightAware
01:35AM -27.6040 152.9050 76° East 229 264 4,900 -600 Descending FlightAware
01:35AM -27.5970 152.9330 74° East 225 259 4,600 -840 Descending FlightAware
01:36AM -27.5910 152.9560 74° East 228 262 4,300 -840 Descending FlightAware
01:36AM -27.5840 152.9830 74° East 221 254 4,000 -840 Descending FlightAware
01:36AM -27.5790 153.0050 76° East 212 244 3,700 -1,080 Descending FlightAware
01:37AM -27.5750 153.0160 68° East 210 242 3,500 -900 Descending FlightAware
01:37AM -27.5680 153.0230 42° Northeast 210 242 3,400 -840 Descending FlightAware
01:37AM -27.5640 153.0260 34° Northeast 211 243 3,300 -1,200 Descending FlightAware
01:37AM -27.5470 153.0360 28° Northeast 209 241 2,900 -1,200 Descending FlightAware
01:38AM -27.5210 153.0510 27° Northeast 203 234 2,300 -1,080 Descending FlightAware
01:38AM -27.5050 153.0600 27° Northeast 190 219 2,000 -960 Descending FlightAware
01:38AM -27.4870 153.0700 26° Northeast 171 197 1,600 -840 Descending FlightAware
01:39AM -27.4800 153.0740 27° Northeast 166 191 1,500 -840 Descending FlightAware
01:39AM -27.4670 153.0820 29° Northeast 151 174 1,200 -840 Descending FlightAware
01:39AM -27.4520 153.0900 25° Northeast 135 155 900 -720 Descending FlightAware
01:40AM -27.4410 153.0970 29° Northeast 134 154 700 -780 Descending FlightAware
01:40AM -27.4300 153.1030 26° Northeast 131 151 400 -780 Descending FlightAware
01:40AM -27.4190 153.1090 26° Northeast 130 150 200 -600 Descending FlightAware
01:41AM -27.4060 153.1170 29° Northeast 127 146 -480 Descending FlightAware
01:41AM -27.3960 153.1220 24° Northeast 96 110  Level FlightAware